• Join FlightAware (Why Join?)
  • Login
  • US Flag 
12:02AM EST


 

Airport Tracker/Info


-or-


 

Live Flight TrackerFlight Track Log ✈ N79TS ✈ 11-Jul-2013 ✈ KJVL - KDEN

Flight Track Log - Related Links

Times and Time Zones

All times are in EDT time to prevent confusion due to time zone crossing. See the N79TS flight status page for this flight to view local times or setup timezone preferences in your user account.

Time Position Orientation Groundspeed Altitude Reporting Facility
EDT Latitude Longitude Course Direction KTS MPH feet Rate Location/Type
11:43AM 42.6486 -89.0922 262° West 215 247 2,700  Level Chicago Center
11:44AM 42.6422 -89.1781 264° West 248 285 5,500 3,194 Climbing Chicago Center
11:45AM 42.6250 -89.2906 258° West 259 298 9,300 2,855 Climbing Chicago Center
11:46AM 42.6094 -89.3972 259° West 286 329 11,400 2,226 Climbing Chicago Center
11:47AM 42.5925 -89.5122 259° West 307 353 13,900 1,403 Climbing Chicago Center
11:48AM 42.5319 -89.8708 262° West  Level Estimated
11:48AM 42.5744 -89.6233 258° West 304 350 14,300  Level Chicago Center
11:49AM 42.5553 -89.7322 257° West 298 343 17,100 2,274 Climbing Chicago Center
11:50AM 42.5408 -89.8386 260° West 286 329 19,000 1,680 Climbing Chicago Center
11:51AM 42.5228 -89.9611 259° West 310 357 20,600 1,440 Climbing Chicago Center
11:52AM 42.5033 -90.0831 258° West 331 381 22,000 1,161 Climbing Chicago Center
11:53AM 42.4825 -90.2139 258° West 355 409 23,000 1,355 Climbing Chicago Center
11:55AM 42.4569 -90.3722 258° West 363 418 24,800 1,839 Climbing Chicago Center
11:56AM 42.4356 -90.5047 258° West 362 417 26,800 1,935 Climbing Chicago Center
11:57AM 42.4133 -90.6339 257° West 357 411 28,800 1,742 Climbing Chicago Center
11:58AM 42.3958 -90.7611 259° West 349 402 30,400 1,355 Climbing Chicago Center
11:59AM 42.3842 -90.9094 264° West 350 403 31,600 1,258 Climbing Chicago Center
12:00PM 42.3697 -91.0514 262° West 358 412 33,000 1,258 Climbing Chicago Center
12:01PM 42.3572 -91.1817 263° West 352 405 34,200 1,258 Climbing Chicago Center
12:02PM 42.3453 -91.3094 263° West 347 399 35,600 968 Climbing Chicago Center
12:03PM 42.3322 -91.4342 262° West 338 389 36,200 576 Climbing Chicago Center
12:04PM 42.3203 -91.5600 263° West 339 390 36,800 576 Climbing Chicago Center
12:05PM 42.3069 -91.6853 262° West 337 388 37,400 581 Climbing Chicago Center
12:06PM 42.2914 -91.8364 262° West 339 390 38,000 290 Climbing Chicago Center
12:07PM 42.2786 -91.9636 262° West 342 394 38,000  Level Chicago Center
12:08PM 42.2644 -92.0958 262° West 354 407 38,000  Level Chicago Center
12:09PM 42.2506 -92.2336 262° West 368 423 38,000  Level Chicago Center
12:10PM 42.2367 -92.3719 262° West 372 428 38,000  Level Chicago Center
12:11PM 42.2181 -92.5358 261° West 372 428 38,000  Level Chicago Center
12:12PM 42.2033 -92.6725 262° West 371 427 38,000  Level Chicago Center
12:13PM 42.1881 -92.8092 261° West 372 428 38,000  Level Chicago Center
12:14PM 42.1728 -92.9472 262° West 375 432 38,000  Level Chicago Center
12:15PM 42.1569 -93.0847 261° West 377 434 38,000  Level Chicago Center
12:16PM 42.1372 -93.2519 261° West 378 435 38,000  Level Chicago Center
12:17PM 42.1211 -93.3919 261° West 381 438 38,000  Level Chicago Center
12:18PM 42.1047 -93.5319 261° West 383 441 38,000  Level Chicago Center
12:19PM 42.0889 -93.6714 261° West 381 438 38,000  Level Chicago Center
12:20PM 42.0722 -93.8111 261° West 382 440 38,000  Level Chicago Center
12:21PM 42.0514 -93.9756 260° West 375 432 38,000  Level Chicago Center
12:22PM 42.0344 -94.1139 261° West 377 434 38,000  Level Chicago Center
12:23PM 42.0181 -94.2511 261° West 376 433 38,000  Level Chicago Center
12:25PM 41.9942 -94.4544 261° West 376 433 38,000  Level Minneapolis Center
12:26PM 41.9764 -94.5925 260° West 375 432 38,000  Level Minneapolis Center
12:27PM 41.9583 -94.7311 260° West 376 433 38,000  Level Minneapolis Center
12:28PM 41.9397 -94.8686 260° West 376 433 38,000  Level Minneapolis Center
12:29PM 41.9225 -95.0078 261° West 377 434 38,000  Level Minneapolis Center
12:30PM 41.9000 -95.1717 260° West 373 429 38,000  Level Minneapolis Center
12:31PM 41.8822 -95.3108 260° West 378 435 38,000  Level Minneapolis Center
12:32PM 41.8625 -95.4497 259° West 380 437 38,000  Level Minneapolis Center
12:33PM 41.8442 -95.5883 260° West 379 436 38,000  Level Minneapolis Center
12:34PM 41.8253 -95.7264 260° West 379 436 38,000  Level Minneapolis Center
12:35PM 41.8019 -95.8917 259° West 378 435 38,000  Level Minneapolis Center
12:36PM 41.7831 -96.0308 260° West 381 438 38,000  Level Minneapolis Center
12:37PM 41.7639 -96.1700 260° West 384 442 38,000  Level Minneapolis Center
12:38PM 41.7439 -96.3097 259° West 384 442 38,000  Level Minneapolis Center
12:39PM 41.7244 -96.4497 260° West 386 444 38,000  Level Minneapolis Center
12:40PM 41.7000 -96.6167 259° West 386 444 38,000  Level Minneapolis Center
12:41PM 41.6800 -96.7583 259° West 388 447 38,000  Level Minneapolis Center
12:42PM 41.6586 -96.8989 259° West 389 448 38,000  Level Minneapolis Center
12:44PM 41.6375 -97.0394 259° West 389 448 38,000  Level Minneapolis Center
12:45PM 41.6158 -97.1817 259° West 390 449 38,000  Level Minneapolis Center
12:46PM 41.5944 -97.3233 259° West 390 449 38,000  Level Minneapolis Center
12:47PM 41.5686 -97.4931 259° West 390 449 38,000  Level Minneapolis Center
12:48PM 41.5464 -97.6350 258° West 391 450 38,000  Level Minneapolis Center
12:49PM 41.5244 -97.7767 258° West 391 450 38,000  Level Minneapolis Center
12:50PM 41.5008 -97.9172 257° West 390 449 38,000  Level Minneapolis Center
12:51PM 41.4797 -98.0581 259° West 389 448 38,000  Level Minneapolis Center
12:52PM 41.4547 -98.2097 258° West 390 449 38,000  Level Minneapolis Center
12:53PM 41.4322 -98.3511 258° West 391 450 38,000  Level Minneapolis Center
12:54PM 41.4083 -98.5111 259° West 392 451 38,000  Level Minneapolis Center
12:55PM 41.3833 -98.6539 257° West 394 453 38,000  Level Minneapolis Center
12:56PM 41.3581 -98.7964 257° West 395 455 38,000  Level Minneapolis Center
12:57PM 41.3331 -98.9383 257° West 395 455 38,000  Level Minneapolis Center
12:58PM 41.3075 -99.0806 257° West 396 456 38,000  Level Minneapolis Center
12:59PM 41.2819 -99.2528 259° West 392 451 38,000  Level Minneapolis Center
01:00PM 41.2581 -99.3917 257° West 388 447 38,000  Level Minneapolis Center
01:01PM 41.2344 -99.5294 257° West 385 443 38,000  Level Minneapolis Center
01:02PM 41.2100 -99.6672 257° West 385 443 38,000  Level Minneapolis Center
01:03PM 41.1861 -99.8050 257° West 384 442 38,000  Level Minneapolis Center
01:04PM 41.1625 -99.9433 257° West 384 442 38,000  Level Minneapolis Center
01:05PM 41.1325 -100.1072 256° West 382 440 38,000  Level Minneapolis Center
01:06PM 41.1083 -100.2450 257° West 383 441 38,000 -387 Level Minneapolis Center
01:07PM 41.0831 -100.3861 257° West 387 445 37,200 -968 Descending Minneapolis Center
01:08PM 41.0561 -100.5306 256° West 396 456 36,000 -497 Descending Minneapolis Center
01:10PM 41.0203 -100.7342 257° West 402 463 36,000  Level Denver Center
01:11PM 40.9906 -100.8897 256° West 399 459 36,000  Level Denver Center
01:12PM 40.9644 -101.0219 255° West 393 452 36,000 -48 Level Denver Center
01:13PM 40.9350 -101.1753 256° West 389 448 35,900 -629 Descending Denver Center
01:14PM 40.9089 -101.3131 256° West 401 461 34,700 -919 Descending Denver Center
01:15PM 40.8761 -101.4817 256° West 423 487 34,000 -339 Descending Denver Center
01:16PM 40.8494 -101.6231 256° West 417 480 34,000 -339 Level Denver Center
01:17PM 40.8228 -101.7614 256° West 409 471 33,300 -823 Descending Denver Center
01:18PM 40.7897 -101.9261 255° West 416 479 32,300 -419 Descending Denver Center
01:20PM 40.7303 -102.2261 255° West 403 464 32,000 -97 Descending Denver Center
01:21PM 40.7019 -102.3606 255° West 399 459 32,000  Level Denver Center
01:22PM 40.6692 -102.5169 255° West 397 457 32,000  Level Denver Center
01:23PM 40.6403 -102.6628 255° West 398 458 32,000  Level Denver Center
01:24PM 40.6111 -102.8017 255° West 397 457 32,000  Level Denver Center
01:25PM 40.5833 -102.9431 256° West 400 460 32,000  Level Denver Center
01:26PM 40.5533 -103.0850 254° West 404 465 32,000  Level Denver Center
01:27PM 40.5236 -103.2283 255° West 408 470 32,000 -384 Level Denver Center
01:28PM 40.4861 -103.4008 254° West 411 473 31,200 -1,776 Descending Denver Center
01:29PM 40.4561 -103.5461 255° West 413 475 28,300 -2,758 Descending Denver Center
01:30PM 40.4267 -103.6856 255° West 401 461 25,500 -2,758 Descending Denver Center
01:31PM 40.3958 -103.8308 254° West 401 461 22,600 -2,710 Descending Denver Center
01:32PM 40.3664 -103.9639 254° West 354 407 19,900 -2,371 Descending Denver Center
01:34PM 40.3561 -104.0806 263° West 321 369 17,700 -1,839 Descending Denver Center
01:35PM 40.3553 -104.2036 270° West 316 364 16,100 -1,355 Descending Denver Center
01:36PM 40.3519 -104.3192 268° West 319 367 14,900 -1,113 Descending Denver Center
01:37PM 40.3117 -104.4267 244° Southwest 308 354 13,800 -1,210 Descending Denver Center
01:38PM 40.2622 -104.5156 234° Southwest 304 350 12,400 -1,645 Descending Denver Center
01:39PM 40.2361 -104.6203 252° West 281 323 10,400 -1,161 Descending Denver Center
01:40PM 40.1908 -104.6753 223° Southwest 236 272 10,000 -581 Descending Denver Center
01:41PM 40.1197 -104.6831 185° South 240 276 9,200 -919 Descending Denver Center
01:42PM 40.0533 -104.6853 181° South 238 274 8,100 -1,016 Descending Denver Center
01:43PM 39.9956 -104.6858 180° South 209 241 7,100 -919 Descending Denver Center
01:44PM 39.9458 -104.6864 180° South 169 194 6,200 -774 Descending Denver Center
01:45PM 39.9019 -104.6867 180° South 158 182 5,500 -677 Descending Denver Center
01:47PM 39.8617 -104.6732 North  Level Estimated
01:54PM 39.8617 -104.6732 North  Level Estimated
01:55PM 39.8617 -104.6732 North  Level Estimated
01:56PM 39.8617 -104.6732 North  Level Estimated